Time;durP1;ratioP1;P1;durP2;ratioP2;P2;SDS_P1;SDS_P2;PMS_P1;PMS_P2;Temp;Humidity;BMP_temperature;BMP_pressure;BME280_temperature;BME280_humidity;BME280_pressure;Samples;Min_cycle;Max_cycle;Signal;HPM_P1;HPM_P2
2023/06/23 00:00:11;;;;;;;3.65;2.40;;;24.10;54.80;;;;;;5012218;28;20770;-83
2023/06/23 00:02:39;;;;;;;2.60;2.20;;;24.10;54.80;;;;;;5012341;28;20221;-74
2023/06/23 00:05:07;;;;;;;5.22;2.67;;;24.10;54.90;;;;;;5012178;28;20303;-83
2023/06/23 00:07:35;;;;;;;3.08;2.42;;;24.10;54.90;;;;;;5012186;28;20197;-74
2023/06/23 00:10:05;;;;;;;2.55;2.35;;;24.00;54.80;;;;;;4994781;28;20842;-74
2023/06/23 00:12:34;;;;;;;4.68;2.40;;;24.00;54.90;;;;;;5011841;28;20211;-78
2023/06/23 00:15:01;;;;;;;3.85;2.83;;;24.00;54.90;;;;;;5009843;28;20236;-83
2023/06/23 00:17:28;;;;;;;3.33;2.47;;;24.00;54.90;;;;;;5012440;28;20200;-84
2023/06/23 00:19:55;;;;;;;3.67;2.50;;;24.00;54.90;;;;;;5015973;28;20324;-83
2023/06/23 00:22:22;;;;;;;3.80;2.38;;;24.00;54.90;;;;;;4998108;28;20279;-83
2023/06/23 00:24:49;;;;;;;4.30;2.60;;;24.00;55.00;;;;;;5015820;28;20252;-74
2023/06/23 00:27:19;;;;;;;5.07;2.97;;;24.00;55.00;;;;;;5015323;28;20259;-84
2023/06/23 00:29:46;;;;;;;2.50;2.30;;;24.00;55.00;;;;;;5015234;28;20217;-83
2023/06/23 00:32:13;;;;;;;4.00;2.60;;;24.00;55.00;;;;;;5015618;28;20594;-84
2023/06/23 00:34:40;;;;;;;3.17;2.30;;;24.00;55.00;;;;;;5015502;28;20239;-84
2023/06/23 00:37:09;;;;;;;6.03;2.78;;;24.00;55.00;;;;;;5015474;28;20232;-82
2023/06/23 00:39:36;;;;;;;3.20;2.30;;;24.00;55.00;;;;;;5015543;28;20275;-84
2023/06/23 00:42:05;;;;;;;3.00;2.22;;;24.00;55.00;;;;;;5015403;28;20276;-82
2023/06/23 00:44:34;;;;;;;4.00;2.38;;;24.00;55.10;;;;;;4998165;28;20504;-75
2023/06/23 00:47:02;;;;;;;3.15;2.30;;;23.90;55.70;;;;;;5015259;28;20200;-84
2023/06/23 00:49:29;;;;;;;3.70;2.60;;;24.00;55.10;;;;;;5015374;28;20297;-85
2023/06/23 00:51:58;;;;;;;4.35;2.45;;;23.90;55.00;;;;;;5014908;28;20640;-83
2023/06/23 00:54:28;;;;;;;3.50;2.25;;;23.90;55.00;;;;;;5015401;28;20284;-84
2023/06/23 00:56:58;;;;;;;3.72;2.17;;;23.90;55.00;;;;;;5015044;28;20200;-79
2023/06/23 00:59:28;;;;;;;4.10;2.50;;;23.90;55.00;;;;;;5014750;28;20308;-77
2023/06/23 01:01:59;;;;;;;2.97;2.28;;;23.90;55.10;;;;;;5014744;28;20189;-78
2023/06/23 01:04:26;;;;;;;5.07;2.40;;;23.90;55.70;;;;;;5014658;28;20217;-84
2023/06/23 01:07:07;;;;;;;3.20;2.15;;;23.90;55.10;;;;;;5014853;28;20224;-74
2023/06/23 01:09:46;;;;;;;4.65;2.40;;;23.80;55.00;;;;;;5015007;28;20299;-73
2023/06/23 01:12:28;;;;;;;2.78;2.30;;;23.90;55.10;;;;;;5014716;28;20203;-74
2023/06/23 01:15:04;;;;;;;3.55;2.40;;;23.80;55.00;;;;;;5014428;28;20243;-77
2023/06/23 01:17:38;;;;;;;2.83;2.30;;;23.90;55.10;;;;;;5014415;28;20201;-73
2023/06/23 01:20:19;;;;;;;3.58;2.45;;;23.80;55.10;;;;;;5014502;28;20271;-73
2023/06/23 01:23:00;;;;;;;3.20;2.10;;;23.80;55.00;;;;;;4997109;28;20209;-85
2023/06/23 01:25:38;;;;;;;3.10;2.45;;;23.80;55.10;;;;;;5014407;28;20307;-85
2023/06/23 01:28:31;;;;;;;3.05;2.28;;;23.80;55.10;;;;;;5013902;28;20645;-84
2023/06/23 01:31:02;;;;;;;3.22;2.30;;;23.80;55.10;;;;;;5011898;28;20289;-84
2023/06/23 01:33:37;;;;;;;3.10;2.28;;;23.80;55.10;;;;;;5014051;28;20205;-83
2023/06/23 01:36:08;;;;;;;2.63;2.10;;;23.80;55.10;;;;;;5014293;28;20216;-84
2023/06/23 01:38:40;;;;;;;3.28;2.10;;;23.80;55.20;;;;;;5014201;28;20209;-84
2023/06/23 01:41:12;;;;;;;2.97;2.13;;;23.80;55.20;;;;;;5014339;28;20268;-84
2023/06/23 01:43:43;;;;;;;4.18;2.28;;;23.80;55.20;;;;;;5013899;28;20566;-75
2023/06/23 01:46:13;;;;;;;3.08;2.17;;;23.80;55.20;;;;;;4996644;28;20655;-83
2023/06/23 01:48:45;;;;;;;3.47;2.05;;;23.80;55.20;;;;;;5013834;28;20607;-84
2023/06/23 01:51:13;;;;;;;4.82;2.40;;;23.80;55.20;;;;;;5014227;28;20284;-84
2023/06/23 01:53:43;;;;;;;2.67;2.13;;;23.80;55.20;;;;;;5013997;28;20189;-82
2023/06/23 01:56:12;;;;;;;3.22;2.08;;;23.70;55.10;;;;;;5013816;28;20213;-84
2023/06/23 01:58:41;;;;;;;2.45;2.00;;;23.70;55.10;;;;;;5014027;28;20251;-84
2023/06/23 02:01:09;;;;;;;3.50;2.35;;;23.80;55.20;;;;;;5013874;28;20232;-85
2023/06/23 02:03:40;;;;;;;3.65;2.33;;;23.70;55.20;;;;;;5013811;28;20200;-85
2023/06/23 02:06:08;;;;;;;2.97;2.20;;;23.70;55.20;;;;;;5013720;28;20192;-83
2023/06/23 02:08:37;;;;;;;2.53;2.05;;;23.70;55.20;;;;;;5013830;28;20280;-84
2023/06/23 02:11:05;;;;;;;2.47;2.28;;;23.70;55.20;;;;;;5013763;28;20287;-83
2023/06/23 02:13:33;;;;;;;6.18;2.97;;;23.70;55.80;;;;;;5013384;28;20225;-84
2023/06/23 02:16:02;;;;;;;3.95;2.50;;;23.70;55.20;;;;;;4986280;28;20233;-84
2023/06/23 02:18:35;;;;;;;2.97;2.30;;;23.70;55.20;;;;;;5012445;28;20193;-73
2023/06/23 02:21:06;;;;;;;3.05;2.22;;;23.60;55.20;;;;;;5013601;28;20193;-83
2023/06/23 02:23:34;;;;;;;2.30;2.10;;;23.60;55.20;;;;;;5012095;28;20244;-83
2023/06/23 02:26:02;;;;;;;3.03;2.53;;;23.60;55.20;;;;;;5013532;28;20196;-74
2023/06/23 02:28:30;;;;;;;2.78;2.30;;;23.70;55.30;;;;;;5013369;28;20276;-84
2023/06/23 02:30:59;;;;;;;3.60;2.45;;;23.60;55.30;;;;;;5013146;28;20199;-83
2023/06/23 02:33:26;;;;;;;4.43;2.40;;;23.60;55.30;;;;;;5012988;28;20201;-84
2023/06/23 02:35:57;;;;;;;3.63;2.20;;;23.60;55.30;;;;;;5013399;28;20271;-83
2023/06/23 02:38:28;;;;;;;3.03;2.30;;;23.60;55.30;;;;;;5013328;28;20185;-83
2023/06/23 02:40:56;;;;;;;4.43;2.55;;;23.60;55.30;;;;;;5012896;28;20189;-84
2023/06/23 02:43:28;;;;;;;3.50;2.25;;;23.60;55.30;;;;;;5013199;28;20217;-83
2023/06/23 02:45:59;;;;;;;2.83;2.22;;;23.60;55.40;;;;;;5013102;28;20221;-82
2023/06/23 02:48:34;;;;;;;3.20;2.63;;;23.60;55.40;;;;;;5012144;28;20197;-78
2023/06/23 02:51:03;;;;;;;3.72;2.45;;;23.60;55.40;;;;;;5012979;28;20722;-83
2023/06/23 02:53:35;;;;;;;2.90;2.45;;;23.60;55.40;;;;;;5013069;28;20283;-84
2023/06/23 02:56:08;;;;;;;3.17;2.22;;;23.50;55.40;;;;;;5011719;28;20256;-82
2023/06/23 02:58:37;;;;;;;5.32;2.65;;;23.60;55.40;;;;;;5011625;28;20280;-83
2023/06/23 03:01:06;;;;;;;4.30;2.47;;;23.60;55.40;;;;;;5012764;28;20569;-83
2023/06/23 03:03:35;;;;;;;4.22;2.75;;;23.60;55.40;;;;;;5012762;28;20221;-75
2023/06/23 03:06:02;;;;;;;5.20;2.70;;;23.60;55.40;;;;;;5012420;28;20197;-83
2023/06/23 03:08:31;;;;;;;3.55;2.33;;;23.50;55.40;;;;;;5012497;28;20276;-83
2023/06/23 03:10:58;;;;;;;3.83;2.60;;;23.50;55.40;;;;;;5012665;28;20196;-84
2023/06/23 03:13:25;;;;;;;3.70;2.67;;;23.50;55.40;;;;;;5012647;28;20225;-83
2023/06/23 03:15:56;;;;;;;3.22;2.70;;;23.60;55.40;;;;;;5012478;28;20233;-84
2023/06/23 03:18:26;;;;;;;4.78;2.70;;;23.50;55.40;;;;;;5012363;28;20722;-82
2023/06/23 03:20:56;;;;;;;4.07;3.10;;;23.50;55.40;;;;;;5012870;28;20285;-84
2023/06/23 03:23:25;;;;;;;3.33;2.80;;;23.50;55.40;;;;;;5012648;28;20296;-83
2023/06/23 03:25:55;;;;;;;5.28;2.90;;;23.50;55.40;;;;;;5012263;28;20228;-81
2023/06/23 03:28:27;;;;;;;3.70;2.72;;;23.50;55.40;;;;;;4995180;28;20203;-84
2023/06/23 03:30:58;;;;;;;6.88;2.92;;;23.50;55.40;;;;;;4978995;28;20212;-84
2023/06/23 03:33:32;;;;;;;4.18;2.63;;;23.50;55.40;;;;;;5012256;28;20197;-84
2023/06/23 03:36:05;;;;;;;5.18;3.17;;;23.50;55.40;;;;;;5012329;28;20229;-83
2023/06/23 03:38:36;;;;;;;4.20;3.38;;;23.50;55.40;;;;;;5012469;28;20189;-83
2023/06/23 03:41:09;;;;;;;5.32;3.28;;;23.50;55.50;;;;;;5011883;28;20362;-85
2023/06/23 03:43:40;;;;;;;4.28;3.17;;;23.40;55.40;;;;;;5012071;28;20280;-84
2023/06/23 03:46:14;;;;;;;5.38;3.13;;;23.50;55.50;;;;;;5012319;28;20229;-84
2023/06/23 03:48:44;;;;;;;3.83;3.03;;;23.40;55.40;;;;;;5012314;28;20268;-84
2023/06/23 03:51:13;;;;;;;4.10;3.00;;;23.50;55.50;;;;;;5012398;28;20229;-84
2023/06/23 03:53:40;;;;;;;4.75;3.20;;;23.40;55.50;;;;;;5015548;28;20194;-84
2023/06/23 03:56:12;;;;;;;4.55;3.50;;;23.40;55.50;;;;;;5016148;28;20308;-84
2023/06/23 03:58:41;;;;;;;4.35;3.08;;;23.50;55.60;;;;;;5016145;28;20213;-83
2023/06/23 04:01:08;;;;;;;3.88;3.13;;;23.40;55.50;;;;;;5016238;28;20231;-84
2023/06/23 04:03:38;;;;;;;4.07;3.50;;;23.40;54.90;;;;;;5016173;28;20276;-84
2023/06/23 04:06:08;;;;;;;4.32;3.40;;;23.40;55.60;;;;;;5016006;28;20189;-84
2023/06/23 04:08:37;;;;;;;3.53;3.15;;;23.40;55.60;;;;;;4998490;28;20197;-84
2023/06/23 04:11:06;;;;;;;4.07;3.58;;;23.40;55.60;;;;;;5016090;28;20311;-84
2023/06/23 04:13:37;;;;;;;4.20;3.65;;;23.40;55.60;;;;;;5015928;28;20634;-81
2023/06/23 04:16:07;;;;;;;4.47;3.78;;;23.40;55.60;;;;;;5015848;28;20340;-85
2023/06/23 04:18:36;;;;;;;3.97;3.17;;;23.40;55.60;;;;;;5015966;28;20225;-84
2023/06/23 04:21:05;;;;;;;4.38;3.45;;;23.40;55.60;;;;;;5016095;28;20680;-85
2023/06/23 04:23:34;;;;;;;4.72;3.00;;;23.40;55.60;;;;;;4998485;28;20190;-82
2023/06/23 04:26:02;;;;;;;4.40;3.25;;;23.40;55.70;;;;;;5015956;28;20306;-84
2023/06/23 04:28:33;;;;;;;3.47;3.10;;;23.40;55.60;;;;;;5015677;28;20232;-84
2023/06/23 04:31:07;;;;;;;4.05;3.38;;;23.40;55.70;;;;;;5015243;28;20769;-79
2023/06/23 04:33:34;;;;;;;3.65;2.97;;;23.40;55.70;;;;;;4998610;28;20296;-84
2023/06/23 04:36:10;;;;;;;4.40;3.28;;;23.40;55.70;;;;;;5015561;28;20319;-84
2023/06/23 04:38:41;;;;;;;3.95;3.05;;;23.40;55.70;;;;;;5015279;28;20279;-84
2023/06/23 04:41:13;;;;;;;3.25;2.95;;;23.40;55.80;;;;;;5015471;28;20303;-84
2023/06/23 04:43:43;;;;;;;3.20;2.90;;;23.40;55.80;;;;;;5015085;28;20247;-82
2023/06/23 04:46:16;;;;;;;3.80;3.10;;;23.30;55.70;;;;;;5015270;28;20232;-83
2023/06/23 04:48:48;;;;;;;3.08;2.65;;;23.40;55.80;;;;;;5015360;28;20225;-83
2023/06/23 04:51:16;;;;;;;4.32;3.40;;;23.40;55.80;;;;;;5015339;28;20189;-82
2023/06/23 04:53:48;;;;;;;3.80;3.40;;;23.30;55.80;;;;;;5015056;28;20201;-83
2023/06/23 04:56:21;;;;;;;3.55;3.17;;;23.30;55.80;;;;;;5015040;28;20213;-84
2023/06/23 04:58:53;;;;;;;3.85;3.28;;;23.40;55.90;;;;;;4964661;28;20297;-84
2023/06/23 05:01:22;;;;;;;6.03;3.58;;;23.40;55.90;;;;;;5014583;28;20347;-83
2023/06/23 05:03:51;;;;;;;3.67;3.28;;;23.30;55.80;;;;;;5014582;28;20549;-84
2023/06/23 05:06:19;;;;;;;4.47;3.28;;;23.30;55.90;;;;;;5014894;28;20284;-83
2023/06/23 05:08:48;;;;;;;6.32;4.13;;;23.30;55.90;;;;;;5014813;28;20280;-78
2023/06/23 05:11:16;;;;;;;3.72;3.25;;;23.30;55.90;;;;;;5014557;28;20633;-84
2023/06/23 05:13:43;;;;;;;3.72;3.30;;;23.30;55.90;;;;;;4997081;28;20197;-84
2023/06/23 05:16:14;;;;;;;4.15;3.50;;;23.30;55.90;;;;;;5004471;28;20327;-82
2023/06/23 05:18:44;;;;;;;3.83;3.30;;;23.30;55.90;;;;;;5013678;28;20272;-84
2023/06/23 05:21:14;;;;;;;4.20;3.50;;;23.30;56.60;;;;;;5014940;28;20754;-84
2023/06/23 05:23:42;;;;;;;5.88;3.78;;;23.30;55.90;;;;;;5014400;28;20648;-83
2023/06/23 05:26:13;;;;;;;6.22;3.30;;;23.30;55.90;;;;;;5014497;28;20714;-84
2023/06/23 05:28:42;;;;;;;5.15;3.60;;;23.30;56.00;;;;;;5014522;28;20194;-84
2023/06/23 05:31:10;;;;;;;4.40;3.53;;;23.30;56.00;;;;;;5014802;28;20300;-84
2023/06/23 05:33:39;;;;;;;5.00;3.70;;;23.30;56.00;;;;;;5014060;28;20284;-84
2023/06/23 05:36:10;;;;;;;6.57;4.40;;;23.30;56.00;;;;;;5013349;28;20240;-83
2023/06/23 05:38:38;;;;;;;4.38;3.72;;;23.30;56.00;;;;;;5014191;28;20730;-84
2023/06/23 05:41:05;;;;;;;4.90;4.05;;;23.30;56.00;;;;;;5014337;28;20285;-83
2023/06/23 05:43:32;;;;;;;6.40;4.28;;;23.30;56.00;;;;;;5014003;28;20651;-84
2023/06/23 05:46:00;;;;;;;5.60;3.92;;;23.30;56.00;;;;;;5014332;28;20308;-84
2023/06/23 05:48:35;;;;;;;5.00;3.53;;;23.30;56.00;;;;;;5013932;28;20252;-84
2023/06/23 05:51:07;;;;;;;4.78;3.95;;;23.30;56.10;;;;;;5014082;28;20773;-83
2023/06/23 05:53:39;;;;;;;6.22;4.25;;;23.30;56.10;;;;;;5013875;28;20292;-81
2023/06/23 05:56:14;;;;;;;5.25;4.25;;;23.30;56.10;;;;;;5013945;28;20743;-83
2023/06/23 05:58:46;;;;;;;4.80;4.30;;;23.30;56.20;;;;;;5014053;28;20277;-82
2023/06/23 06:01:15;;;;;;;5.32;4.10;;;23.30;56.20;;;;;;5014376;28;20221;-84
2023/06/23 06:03:46;;;;;;;4.85;3.83;;;23.30;56.20;;;;;;5012620;28;20574;-84
2023/06/23 06:06:15;;;;;;;7.32;4.30;;;23.30;56.20;;;;;;5013751;28;20275;-83
2023/06/23 06:08:45;;;;;;;6.80;4.10;;;23.30;56.20;;;;;;5013947;28;20287;-84
2023/06/23 06:11:16;;;;;;;5.72;4.63;;;23.30;56.30;;;;;;5014009;28;20308;-84
2023/06/23 06:13:45;;;;;;;4.68;3.80;;;23.30;56.30;;;;;;5013781;28;20196;-85
2023/06/23 06:16:14;;;;;;;5.25;4.20;;;23.30;56.30;;;;;;5001867;28;20260;-84
2023/06/23 06:18:42;;;;;;;5.03;4.43;;;23.30;56.90;;;;;;5014007;28;20233;-86
2023/06/23 06:21:11;;;;;;;10.05;4.43;;;23.30;56.40;;;;;;5013236;28;20670;-86
2023/06/23 06:23:41;;;;;;;5.95;4.40;;;23.30;56.30;;;;;;5013561;28;20629;-86
2023/06/23 06:26:11;;;;;;;5.22;4.25;;;23.30;56.30;;;;;;5012817;28;20664;-84
2023/06/23 06:28:40;;;;;;;4.15;3.75;;;23.30;56.30;;;;;;5013402;28;20272;-84
2023/06/23 06:31:08;;;;;;;6.38;4.30;;;23.30;56.20;;;;;;4979851;28;20253;-86
2023/06/23 06:33:38;;;;;;;5.15;4.43;;;23.30;56.20;;;;;;5015304;28;20241;-85
2023/06/23 06:36:08;;;;;;;5.53;4.20;;;23.30;56.20;;;;;;5031947;28;20232;-85
2023/06/23 06:38:38;;;;;;;5.00;4.10;;;23.30;56.20;;;;;;5015379;28;20687;-88
2023/06/23 06:41:07;;;;;;;5.63;3.80;;;23.30;56.20;;;;;;4985726;28;20648;-87
2023/06/23 06:43:36;;;;;;;6.45;4.10;;;23.40;56.20;;;;;;5010319;28;20758;-90
2023/06/23 06:46:04;;;;;;;4.65;3.85;;;23.40;56.20;;;;;;5011031;28;20235;-93
2023/06/23 06:48:34;;;;;;;4.75;4.10;;;23.40;56.20;;;;;;5011614;28;20730;-90
2023/06/23 06:51:02;;;;;;;7.28;4.32;;;23.50;56.20;;;;;;5010447;28;20726;-92
2023/06/23 06:53:30;;;;;;;6.45;4.18;;;23.50;56.30;;;;;;4993670;28;20274;-91
2023/06/23 06:55:58;;;;;;;6.20;4.72;;;23.50;56.20;;;;;;4992509;28;20225;-93
2023/06/23 06:58:26;;;;;;;4.90;4.40;;;23.50;56.20;;;;;;5010894;28;20681;-88
2023/06/23 07:00:57;;;;;;;5.78;4.20;;;23.60;56.30;;;;;;5010896;28;20276;-90
2023/06/23 07:03:25;;;;;;;6.95;4.80;;;23.60;56.20;;;;;;5009151;28;20201;-91
2023/06/23 07:05:52;;;;;;;5.55;4.32;;;23.60;56.20;;;;;;5012002;28;20267;-92
2023/06/23 07:08:20;;;;;;;6.18;4.30;;;23.70;56.20;;;;;;5013673;28;20279;-85
2023/06/23 07:10:47;;;;;;;5.63;4.68;;;23.70;56.20;;;;;;5006225;28;20221;-86
2023/06/23 07:13:14;;;;;;;6.28;4.40;;;23.80;56.10;;;;;;5009973;28;20654;-86
2023/06/23 07:15:41;;;;;;;6.05;4.45;;;23.80;56.10;;;;;;4997375;28;20308;-87
2023/06/23 07:18:12;;;;;;;5.28;4.40;;;23.80;56.00;;;;;;5011857;28;20330;-93
2023/06/23 07:20:41;;;;;;;5.97;4.57;;;23.90;56.10;;;;;;5011959;28;20864;-93
2023/06/23 07:23:10;;;;;;;4.68;3.95;;;23.90;56.00;;;;;;5004306;28;20259;-93
2023/06/23 07:25:38;;;;;;;7.43;4.75;;;24.00;56.00;;;;;;5008379;28;20649;-81
2023/06/23 07:28:05;;;;;;;4.82;4.28;;;24.00;56.00;;;;;;5006446;28;20295;-82
2023/06/23 07:30:39;;;;;;;7.82;4.15;;;24.00;55.90;;;;;;5010150;28;20231;-86
2023/06/23 07:33:11;;;;;;;4.43;4.03;;;24.00;56.00;;;;;;5010169;28;20193;-89
2023/06/23 07:36:03;;;;;;;7.88;3.97;;;24.10;56.00;;;;;;5009756;28;20304;-91
2023/06/23 07:38:51;;;;;;;4.78;3.90;;;24.10;56.00;;;;;;5003876;28;20208;-92
2023/06/23 07:41:20;;;;;;;5.40;4.55;;;24.10;56.00;;;;;;5002804;28;20284;-91
2023/06/23 07:43:47;;;;;;;5.25;4.20;;;24.10;56.00;;;;;;5014674;28;20240;-90
2023/06/23 07:46:33;;;;;;;7.07;3.90;;;24.20;56.10;;;;;;5014625;28;20967;-92
2023/06/23 07:49:05;;;;;;;4.90;4.07;;;24.20;56.00;;;;;;5013138;28;20193;-92
2023/06/23 07:51:54;;;;;;;5.70;4.35;;;24.20;56.00;;;;;;5012912;28;20263;-91
2023/06/23 07:54:21;;;;;;;4.60;4.03;;;24.20;55.90;;;;;;5008233;28;20239;-92
2023/06/23 07:56:48;;;;;;;4.38;3.97;;;24.20;55.90;;;;;;5012072;28;20213;-92
2023/06/23 07:59:36;;;;;;;6.53;4.25;;;24.20;56.00;;;;;;4997122;28;20205;-91
2023/06/23 08:02:04;;;;;;;5.68;4.30;;;24.30;56.60;;;;;;5006075;28;20212;-84
2023/06/23 08:04:33;;;;;;;4.95;4.10;;;24.30;56.00;;;;;;5009624;28;20203;-89
2023/06/23 08:07:08;;;;;;;5.97;4.03;;;24.30;56.00;;;;;;5011553;28;20202;-93
2023/06/23 08:09:35;;;;;;;6.22;4.18;;;24.30;56.00;;;;;;5015107;28;20209;-90
2023/06/23 08:12:03;;;;;;;5.60;3.90;;;24.30;56.00;;;;;;5012580;28;20241;-87
2023/06/23 08:14:30;;;;;;;6.35;3.97;;;24.40;56.00;;;;;;5014837;28;20194;-91
2023/06/23 08:16:57;;;;;;;5.22;3.75;;;24.40;56.00;;;;;;5009989;28;20233;-86
2023/06/23 08:19:24;;;;;;;6.43;3.75;;;24.40;55.90;;;;;;5008806;28;20285;-79
2023/06/23 08:21:53;;;;;;;4.55;4.00;;;24.40;56.00;;;;;;5000713;28;20749;-82
2023/06/23 08:24:22;;;;;;;9.48;3.72;;;24.40;56.00;;;;;;5006244;28;20232;-90
2023/06/23 08:26:50;;;;;;;6.05;4.75;;;24.40;56.00;;;;;;5000819;28;20308;-77
2023/06/23 08:29:17;;;;;;;4.78;4.05;;;24.40;56.70;;;;;;5008807;28;20211;-82
2023/06/23 08:31:49;;;;;;;10.80;4.13;;;24.50;56.00;;;;;;5007495;28;20363;-93
2023/06/23 08:34:20;;;;;;;8.43;4.13;;;24.50;56.00;;;;;;5006887;28;20201;-82
2023/06/23 08:37:10;;;;;;;19.35;4.50;;;24.60;56.00;;;;;;5006784;28;20310;-88
2023/06/23 08:39:38;;;;;;;5.65;4.00;;;24.70;56.10;;;;;;5011127;28;20201;-84
2023/06/23 08:42:07;;;;;;;5.82;4.00;;;24.70;55.80;;;;;;5011348;28;20211;-84
2023/06/23 08:50:45;;;;;;;9.65;5.68;;;25.20;55.20;;;;;;4989203;28;20526;-82
2023/06/23 08:56:57;;;;;;;13.35;10.50;;;25.50;54.50;;;;;;4993261;28;21043;-84
2023/06/23 08:59:29;;;;;;;14.98;12.90;;;25.70;54.20;;;;;;4953272;29;20455;-89
2023/06/23 09:01:57;;;;;;;19.13;14.90;;;25.80;54.10;;;;;;4920384;29;20464;-90
2023/06/23 09:04:27;;;;;;;29.13;26.13;;;25.80;54.00;;;;;;4901876;29;20464;-87
2023/06/23 09:07:18;;;;;;;23.35;20.98;;;25.90;54.00;;;;;;4936321;29;20556;-86
2023/06/23 09:13:17;;;;;;;33.63;30.38;;;26.10;53.90;;;;;;4954008;29;20632;-89
2023/06/23 09:15:52;;;;;;;25.63;22.23;;;26.20;53.80;;;;;;4900992;29;20475;-81
2023/06/23 09:18:20;;;;;;;24.75;22.00;;;26.20;53.50;;;;;;4912964;29;20236;-81
2023/06/23 09:20:50;;;;;;;19.27;17.33;;;26.20;53.70;;;;;;4914396;29;20316;-82
2023/06/23 09:23:19;;;;;;;21.77;19.35;;;26.10;53.70;;;;;;4893562;29;20675;-83
2023/06/23 09:25:50;;;;;;;20.42;18.33;;;26.00;54.10;;;;;;4907835;29;20260;-80
2023/06/23 09:28:28;;;;;;;18.85;16.95;;;25.90;54.40;;;;;;4911400;29;20216;-78
2023/06/23 09:30:58;;;;;;;17.27;15.38;;;25.90;54.50;;;;;;4897633;29;20255;-81
2023/06/23 09:33:27;;;;;;;16.75;15.02;;;25.90;54.70;;;;;;4910391;29;20876;-81
2023/06/23 09:35:57;;;;;;;17.90;13.55;;;25.80;54.70;;;;;;4918881;29;20762;-81
2023/06/23 09:38:29;;;;;;;25.25;13.93;;;25.80;54.80;;;;;;4947049;28;20282;-81
2023/06/23 09:41:10;;;;;;;38.95;12.48;;;25.80;55.00;;;;;;4946607;29;20229;-80
2023/06/23 09:43:42;;;;;;;19.88;11.88;;;25.70;55.00;;;;;;4947792;28;20254;-81
2023/06/23 09:46:13;;;;;;;24.33;11.63;;;25.80;55.10;;;;;;4996098;28;20283;-81
2023/06/23 09:48:40;;;;;;;21.70;11.00;;;25.80;55.20;;;;;;5010199;28;20272;-80
2023/06/23 09:51:15;;;;;;;19.23;9.90;;;25.70;55.10;;;;;;5010379;28;20221;-81
2023/06/23 09:53:44;;;;;;;18.85;9.93;;;25.70;55.10;;;;;;5008125;28;20195;-81
2023/06/23 09:56:16;;;;;;;18.02;8.70;;;25.70;55.00;;;;;;5008660;28;20315;-81
2023/06/23 09:58:45;;;;;;;19.45;8.40;;;25.70;55.00;;;;;;5006247;28;20308;-80
2023/06/23 10:01:17;;;;;;;12.20;7.10;;;25.70;54.90;;;;;;5007740;28;20228;-80
2023/06/23 10:03:45;;;;;;;15.95;7.43;;;25.70;54.90;;;;;;5009847;28;20200;-81
2023/06/23 10:06:22;;;;;;;15.90;6.80;;;25.70;54.80;;;;;;5006285;28;20880;-82
2023/06/23 10:08:54;;;;;;;12.48;6.90;;;25.70;54.80;;;;;;5010388;28;20197;-81
2023/06/23 10:11:29;;;;;;;12.52;6.63;;;25.60;54.60;;;;;;5009543;28;20615;-80
2023/06/23 10:13:59;;;;;;;8.73;5.88;;;25.60;54.60;;;;;;5009920;28;20205;-81
2023/06/23 10:16:28;;;;;;;15.90;6.00;;;25.70;54.60;;;;;;5008369;28;20245;-80
2023/06/23 10:18:56;;;;;;;8.48;5.70;;;25.60;54.60;;;;;;5006485;28;20238;-81
2023/06/23 10:21:24;;;;;;;9.38;5.90;;;25.60;54.60;;;;;;4991469;28;20220;-81
2023/06/23 10:23:54;;;;;;;7.13;5.55;;;25.60;54.50;;;;;;5008662;28;20253;-81
2023/06/23 10:26:23;;;;;;;10.38;5.20;;;25.60;54.50;;;;;;5010894;28;20252;-81
2023/06/23 10:28:52;;;;;;;6.78;5.60;;;25.60;54.50;;;;;;5009712;28;20276;-81
2023/06/23 10:31:20;;;;;;;11.07;4.97;;;25.60;54.50;;;;;;5008350;28;20244;-81
2023/06/23 10:33:49;;;;;;;6.32;5.20;;;25.50;54.40;;;;;;5009654;28;20221;-81
2023/06/23 10:36:20;;;;;;;6.07;5.00;;;25.50;54.40;;;;;;5008083;28;20227;-79
2023/06/23 10:38:51;;;;;;;5.53;4.55;;;25.50;54.40;;;;;;5009231;28;20225;-77
2023/06/23 10:41:20;;;;;;;5.88;4.47;;;25.50;54.40;;;;;;5009424;28;20299;-80
2023/06/23 10:43:48;;;;;;;7.68;4.78;;;25.50;54.40;;;;;;5006830;28;20288;-81
2023/06/23 10:46:16;;;;;;;6.10;4.72;;;25.50;54.40;;;;;;5006805;28;20320;-81
2023/06/23 10:48:44;;;;;;;5.85;5.00;;;25.50;54.50;;;;;;4997945;28;20202;-81
2023/06/23 10:51:14;;;;;;;5.18;4.30;;;25.50;54.50;;;;;;5034455;28;20707;-82
2023/06/23 10:53:58;;;;;;;6.03;4.43;;;25.50;54.50;;;;;;5008132;28;20908;-81
2023/06/23 10:56:33;;;;;;;6.95;4.38;;;25.40;54.50;;;;;;4990804;28;20227;-81
2023/06/23 10:59:20;;;;;;;6.80;4.75;;;25.50;54.60;;;;;;4996211;28;20755;-81
2023/06/23 11:02:10;;;;;;;11.38;5.03;;;25.40;54.60;;;;;;5003858;28;20220;-82
2023/06/23 11:04:52;;;;;;;7.13;4.80;;;25.40;54.50;;;;;;4998223;28;20209;-81
2023/06/23 11:07:21;;;;;;;5.38;3.90;;;25.40;54.50;;;;;;5035479;28;20762;-82
2023/06/23 11:09:54;;;;;;;5.35;4.72;;;25.40;54.50;;;;;;5005062;28;20312;-82
2023/06/23 11:12:31;;;;;;;5.07;4.47;;;25.40;54.50;;;;;;5008697;28;20658;-81
2023/06/23 11:15:04;;;;;;;5.55;4.50;;;25.40;54.50;;;;;;4998726;28;20651;-81
2023/06/23 11:17:43;;;;;;;4.43;4.03;;;25.40;54.60;;;;;;4996995;28;20246;-81
2023/06/23 11:20:12;;;;;;;5.30;4.18;;;25.30;54.60;;;;;;5005801;28;20197;-82
2023/06/23 11:22:54;;;;;;;6.32;4.60;;;25.40;54.80;;;;;;4992534;28;20252;-79
2023/06/23 11:25:27;;;;;;;6.85;4.30;;;25.40;54.80;;;;;;4990081;28;20204;-82
2023/06/23 11:28:26;;;;;;;7.15;4.85;;;25.40;54.80;;;;;;4991934;28;20675;-80
2023/06/23 11:30:55;;;;;;;4.50;3.78;;;25.40;54.80;;;;;;4987785;28;20228;-79
2023/06/23 11:33:30;;;;;;;6.38;3.90;;;25.30;54.70;;;;;;4975444;28;20231;-82
2023/06/23 11:36:01;;;;;;;4.82;4.18;;;25.30;54.70;;;;;;5003407;28;20248;-81
2023/06/23 11:38:32;;;;;;;4.68;3.90;;;25.30;54.70;;;;;;5002592;28;20213;-80
2023/06/23 11:41:01;;;;;;;7.38;3.97;;;25.30;54.80;;;;;;5005859;28;20227;-80
2023/06/23 11:43:35;;;;;;;6.80;4.30;;;25.30;54.80;;;;;;5003878;28;20207;-80
2023/06/23 11:46:07;;;;;;;5.38;4.00;;;25.30;54.80;;;;;;4995275;28;20304;-81
2023/06/23 11:48:37;;;;;;;5.13;4.30;;;25.30;54.80;;;;;;5007086;28;20201;-80
2023/06/23 11:51:06;;;;;;;5.43;3.90;;;25.30;54.80;;;;;;5007108;28;20601;-81
2023/06/23 11:53:35;;;;;;;5.47;4.03;;;25.30;54.90;;;;;;4990736;28;20272;-83
2023/06/23 11:56:04;;;;;;;5.18;4.55;;;25.30;54.90;;;;;;5008049;28;20312;-78
2023/06/23 11:58:34;;;;;;;5.57;4.32;;;25.30;55.00;;;;;;4989895;28;20639;-75
2023/06/23 12:01:02;;;;;;;6.07;3.97;;;25.30;54.90;;;;;;5005315;28;20276;-81
2023/06/23 12:03:30;;;;;;;6.10;4.03;;;25.30;54.90;;;;;;5018287;28;20201;-81
2023/06/23 12:05:59;;;;;;;8.10;4.10;;;25.30;54.90;;;;;;4995484;28;20214;-81
2023/06/23 12:08:28;;;;;;;5.55;4.22;;;25.30;55.00;;;;;;4999379;28;20267;-79
2023/06/23 12:11:02;;;;;;;5.95;4.40;;;25.30;55.00;;;;;;5006889;28;20700;-81
2023/06/23 12:13:29;;;;;;;6.93;4.13;;;25.30;55.00;;;;;;5004206;28;20259;-80
2023/06/23 12:16:01;;;;;;;4.75;3.85;;;25.30;55.00;;;;;;4989385;28;20228;-78
2023/06/23 12:18:28;;;;;;;5.82;3.80;;;25.30;55.10;;;;;;5003812;28;20217;-78
2023/06/23 12:20:57;;;;;;;7.25;3.80;;;25.30;55.00;;;;;;4993591;28;20292;-81
2023/06/23 12:23:24;;;;;;;5.68;4.43;;;25.30;55.00;;;;;;5002789;28;20217;-81
2023/06/23 12:25:52;;;;;;;4.45;3.90;;;25.30;55.00;;;;;;5009939;28;20221;-82
2023/06/23 12:28:28;;;;;;;5.35;4.50;;;25.30;54.90;;;;;;4987466;28;20245;-83
2023/06/23 12:31:12;;;;;;;4.85;4.20;;;25.30;55.00;;;;;;4970375;28;20734;-81
2023/06/23 12:33:41;;;;;;;4.72;3.78;;;25.30;54.90;;;;;;4950964;28;20221;-78
2023/06/23 12:36:19;;;;;;;7.57;3.92;;;25.30;54.90;;;;;;4951045;28;20219;-82
2023/06/23 12:38:55;;;;;;;5.88;3.95;;;25.30;54.80;;;;;;4958761;28;20238;-82
2023/06/23 12:41:24;;;;;;;5.07;4.07;;;25.30;55.10;;;;;;4965518;28;20720;-81
2023/06/23 12:43:56;;;;;;;7.72;4.85;;;25.30;55.00;;;;;;4948648;28;20634;-81
2023/06/23 12:46:28;;;;;;;8.88;4.50;;;25.30;55.00;;;;;;4966326;28;20836;-81
2023/06/23 12:48:57;;;;;;;4.72;4.22;;;25.30;55.20;;;;;;4961009;28;21245;-83
2023/06/23 12:51:36;;;;;;;6.60;4.47;;;25.30;55.20;;;;;;4949243;28;20798;-82
2023/06/23 12:54:06;;;;;;;5.70;4.30;;;25.30;55.20;;;;;;4965302;28;20206;-84
2023/06/23 12:56:39;;;;;;;7.00;4.10;;;25.30;55.20;;;;;;5002799;28;20252;-80
2023/06/23 12:59:20;;;;;;;6.93;4.55;;;25.30;55.20;;;;;;4997840;28;20213;-81
2023/06/23 13:01:48;;;;;;;6.18;4.68;;;25.30;55.20;;;;;;5007146;28;20307;-78
2023/06/23 13:04:18;;;;;;;5.15;4.28;;;25.30;55.20;;;;;;5008166;28;20216;-77
2023/06/23 13:06:49;;;;;;;6.85;3.90;;;25.30;55.20;;;;;;5005712;28;20758;-79
2023/06/23 13:09:17;;;;;;;6.18;4.70;;;25.30;55.30;;;;;;4994493;28;20722;-79
2023/06/23 13:11:44;;;;;;;6.95;4.80;;;25.30;55.20;;;;;;5009500;28;20327;-77
2023/06/23 13:14:13;;;;;;;7.03;4.80;;;25.30;55.20;;;;;;5008865;28;20288;-79
2023/06/23 13:16:40;;;;;;;5.82;4.57;;;25.30;55.20;;;;;;5004911;28;20323;-78